createdAt,value
2022-11-22T00:00:56.221Z,-0.10
2022-11-22T00:01:58.805Z,-0.10
2022-11-22T00:03:01.386Z,-0.10
2022-11-22T00:04:03.963Z,-0.10
2022-11-22T00:05:07.001Z,-0.10
2022-11-22T00:06:09.542Z,-0.10
2022-11-22T00:07:12.113Z,-0.10
2022-11-22T00:08:14.687Z,-0.10
2022-11-22T00:09:17.209Z,-0.10
2022-11-22T00:10:19.934Z,-0.10
2022-11-22T00:11:22.440Z,-0.20
2022-11-22T00:12:24.944Z,-0.20
2022-11-22T00:13:27.527Z,-0.20
2022-11-22T00:14:30.373Z,-0.20
2022-11-22T00:15:33.025Z,-0.20
2022-11-22T00:16:35.794Z,-0.20
2022-11-22T00:17:38.709Z,-0.20
2022-11-22T00:18:41.307Z,-0.20
2022-11-22T00:19:43.802Z,-0.20
2022-11-22T00:20:46.340Z,-0.20
2022-11-22T00:21:48.971Z,-0.30
2022-11-22T00:22:51.476Z,-0.30
2022-11-22T00:23:57.624Z,-0.30
2022-11-22T00:25:00.631Z,-0.30
2022-11-22T00:26:03.204Z,-0.30
2022-11-22T00:27:05.811Z,-0.30
2022-11-22T00:28:08.412Z,-0.30
2022-11-22T00:29:11.061Z,-0.30
2022-11-22T00:30:13.647Z,-0.30
2022-11-22T00:34:47.288Z,-0.30
2022-11-22T00:35:49.841Z,-0.30
2022-11-22T00:36:52.389Z,-0.30
2022-11-22T00:37:55.036Z,-0.30
2022-11-22T00:38:57.697Z,-0.30
2022-11-22T00:40:00.228Z,-0.30
2022-11-22T00:41:03.038Z,-0.30
2022-11-22T00:42:05.614Z,-0.30
2022-11-22T00:43:08.137Z,-0.30
2022-11-22T00:44:10.658Z,-0.30
2022-11-22T00:45:13.220Z,-0.30
2022-11-22T00:46:15.745Z,-0.30
2022-11-22T00:47:18.306Z,-0.30
2022-11-22T00:48:21.100Z,-0.30
2022-11-22T00:49:23.706Z,-0.30
2022-11-22T00:50:26.257Z,-0.30
2022-11-22T00:51:28.805Z,-0.30
2022-11-22T00:52:31.351Z,-0.30
2022-11-22T00:53:33.861Z,-0.30
2022-11-22T00:54:36.509Z,-0.40
2022-11-22T00:55:39.075Z,-0.40
2022-11-22T00:56:41.752Z,-0.40
2022-11-22T00:57:44.324Z,-0.40
2022-11-22T00:58:46.847Z,-0.40
2022-11-22T00:59:49.463Z,-0.40
2022-11-22T01:00:56.326Z,-0.40
2022-11-22T01:01:59.467Z,-0.40
2022-11-22T01:03:02.067Z,-0.50
2022-11-22T01:04:04.848Z,-0.40
2022-11-22T01:05:07.689Z,-0.50
2022-11-22T01:06:10.273Z,-0.50
2022-11-22T01:07:13.055Z,-0.50
2022-11-22T01:08:15.733Z,-0.50
2022-11-22T01:09:21.898Z,-0.50
2022-11-22T01:10:24.475Z,-0.50
2022-11-22T01:11:27.125Z,-0.50
2022-11-22T01:12:29.677Z,-0.50
2022-11-22T01:13:32.566Z,-0.60
2022-11-22T01:14:35.132Z,-0.60
2022-11-22T01:15:37.765Z,-0.60
2022-11-22T01:16:40.439Z,-0.60
2022-11-22T01:17:43.030Z,-0.60
2022-11-22T01:18:45.891Z,-0.60
2022-11-22T01:19:48.490Z,-0.60
2022-11-22T01:20:51.062Z,-0.70
2022-11-22T01:21:53.614Z,-0.70
2022-11-22T01:22:56.298Z,-0.70
2022-11-22T01:23:58.816Z,-0.70
2022-11-22T01:25:01.426Z,-0.70
2022-11-22T01:26:07.869Z,-0.70
2022-11-22T01:27:10.466Z,-0.70
2022-11-22T01:28:13.222Z,-0.70
2022-11-22T01:29:15.771Z,-0.70
2022-11-22T01:30:19.592Z,-0.70
2022-11-22T01:31:22.253Z,-0.80
2022-11-22T01:32:24.777Z,-0.80
2022-11-22T01:33:29.352Z,-0.80
2022-11-22T01:34:32.154Z,-0.80
2022-11-22T01:35:35.196Z,-0.80
2022-11-22T01:36:37.775Z,-0.80
2022-11-22T01:37:40.372Z,-0.80
2022-11-22T01:39:08.859Z,-0.90
2022-11-22T01:40:11.953Z,-0.90
2022-11-22T01:41:14.578Z,-0.90
2022-11-22T01:42:17.256Z,-0.90
2022-11-22T01:43:23.754Z,-0.90
2022-11-22T01:44:33.331Z,-0.90
2022-11-22T01:45:43.746Z,-0.90
2022-11-22T01:46:50.036Z,-0.90
2022-11-22T01:47:53.205Z,-0.90
2022-11-22T01:49:37.092Z,-0.90
2022-11-22T01:50:43.764Z,-0.90
2022-11-22T01:51:51.840Z,-0.90
2022-11-22T01:52:57.458Z,-0.90
2022-11-22T01:54:10.008Z,-1.00
2022-11-22T01:55:13.191Z,-1.00
2022-11-22T01:56:18.529Z,-1.00
2022-11-22T01:57:26.833Z,-1.00
2022-11-22T01:58:33.521Z,-1.00
2022-11-22T01:59:40.379Z,-1.00
2022-11-22T02:00:44.140Z,-1.00
2022-11-22T02:01:46.905Z,-1.00
2022-11-22T02:02:59.099Z,-1.00
2022-11-22T02:04:03.492Z,-1.00
2022-11-22T02:05:11.755Z,-1.00
2022-11-22T02:06:14.868Z,-1.00
2022-11-22T02:07:27.668Z,-1.00
2022-11-22T02:08:56.257Z,-1.00
2022-11-22T02:09:58.765Z,-1.00
2022-11-22T02:11:03.803Z,-1.10
2022-11-22T02:12:08.790Z,-1.10
2022-11-22T02:13:14.006Z,-1.10
2022-11-22T02:14:21.591Z,-1.10
2022-11-22T02:15:24.310Z,-1.10
2022-11-22T02:16:26.880Z,-1.10
2022-11-22T02:17:29.606Z,-1.10
2022-11-22T02:18:35.832Z,-1.10
2022-11-22T02:19:46.322Z,-1.10
2022-11-22T02:20:48.853Z,-1.10
2022-11-22T02:21:59.865Z,-1.00
2022-11-22T02:23:44.252Z,-1.00
2022-11-22T02:25:19.621Z,-1.00
2022-11-22T02:26:27.766Z,-1.00
2022-11-22T02:27:30.345Z,-1.00
2022-11-22T02:28:38.133Z,-1.00
2022-11-22T02:29:41.370Z,-1.00
2022-11-22T02:30:43.948Z,-1.00
2022-11-22T02:31:47.555Z,-1.00
2022-11-22T02:32:50.185Z,-1.00
2022-11-22T02:33:55.306Z,-1.00
2022-11-22T02:35:00.006Z,-1.00
2022-11-22T02:36:03.269Z,-1.00
2022-11-22T02:37:05.923Z,-1.00
2022-11-22T02:38:18.344Z,-1.10
2022-11-22T02:39:27.772Z,-1.00
2022-11-22T02:40:38.890Z,-1.10
2022-11-22T02:41:41.704Z,-1.00
2022-11-22T02:42:50.429Z,-1.00
2022-11-22T02:43:52.984Z,-1.00
2022-11-22T02:44:55.542Z,-1.00
2022-11-22T02:46:08.477Z,-1.00
2022-11-22T02:47:11.054Z,-1.00
2022-11-22T02:48:17.491Z,-1.00
2022-11-22T02:49:23.456Z,-1.00
2022-11-22T02:50:26.023Z,-1.00
2022-11-22T02:51:28.527Z,-1.00
2022-11-22T02:52:31.170Z,-1.10
2022-11-22T02:53:33.708Z,-1.10
2022-11-22T02:54:36.259Z,-1.10
2022-11-22T02:55:39.119Z,-1.10
2022-11-22T02:56:41.812Z,-1.10
2022-11-22T02:57:44.352Z,-1.10
2022-11-22T02:58:46.913Z,-1.10
2022-11-22T02:59:49.463Z,-1.10
2022-11-22T03:00:52.109Z,-1.10
2022-11-22T03:01:58.630Z,-1.20
2022-11-22T03:03:04.389Z,-1.20
2022-11-22T03:04:07.065Z,-1.20
2022-11-22T03:06:30.164Z,-1.20
2022-11-22T03:07:32.842Z,-1.20
2022-11-22T03:08:35.553Z,-1.20
2022-11-22T03:09:38.088Z,-1.20
2022-11-22T03:10:40.633Z,-1.30
2022-11-22T03:16:05.414Z,-1.30
2022-11-22T03:17:07.966Z,-1.30
2022-11-22T03:18:10.518Z,-1.40
2022-11-22T03:19:14.272Z,-1.40
2022-11-22T03:20:16.847Z,-1.40
2022-11-22T03:21:19.617Z,-1.40
2022-11-22T03:22:22.124Z,-1.40
2022-11-22T03:23:24.641Z,-1.40
2022-11-22T03:24:27.235Z,-1.40
2022-11-22T03:25:29.757Z,-1.40
2022-11-22T03:26:32.561Z,-1.40
2022-11-22T03:27:35.170Z,-1.40
2022-11-22T03:28:37.898Z,-1.40
2022-11-22T03:29:40.448Z,-1.40
2022-11-22T03:30:43.061Z,-1.40
2022-11-22T03:31:45.625Z,-1.40
2022-11-22T03:32:48.165Z,-1.40
2022-11-22T03:33:50.964Z,-1.40
2022-11-22T03:34:53.500Z,-1.40
2022-11-22T03:35:58.851Z,-1.40
2022-11-22T03:37:01.455Z,-1.40
2022-11-22T03:38:04.468Z,-1.40
2022-11-22T03:39:07.263Z,-1.30
2022-11-22T03:40:10.136Z,-1.30
2022-11-22T03:41:12.703Z,-1.30
2022-11-22T03:42:21.007Z,-1.30
2022-11-22T03:43:24.333Z,-1.30
2022-11-22T03:44:26.977Z,-1.30
2022-11-22T03:45:30.125Z,-1.30
2022-11-22T03:46:32.798Z,-1.30
2022-11-22T03:47:35.296Z,-1.30
2022-11-22T03:48:37.832Z,-1.30
2022-11-22T03:49:40.564Z,-1.30
2022-11-22T03:50:43.198Z,-1.20
2022-11-22T03:51:45.782Z,-1.30
2022-11-22T03:52:48.302Z,-1.20
2022-11-22T03:53:50.813Z,-1.20
2022-11-22T03:54:53.349Z,-1.20
2022-11-22T03:55:55.930Z,-1.20
2022-11-22T03:56:58.474Z,-1.20
2022-11-22T03:58:01.077Z,-1.20
2022-11-22T03:59:03.600Z,-1.20
2022-11-22T04:00:07.162Z,-1.20
2022-11-22T04:01:16.806Z,-1.20
2022-11-22T04:02:19.584Z,-1.20
2022-11-22T04:03:22.193Z,-1.20
2022-11-22T04:04:24.786Z,-1.10
2022-11-22T04:05:27.440Z,-1.10
2022-11-22T04:06:30.013Z,-1.10
2022-11-22T04:07:32.630Z,-1.10
2022-11-22T04:08:35.294Z,-1.10
2022-11-22T04:09:37.901Z,-1.10
2022-11-22T04:10:40.503Z,-1.10
2022-11-22T04:11:43.071Z,-1.10
2022-11-22T04:12:45.579Z,-1.10
2022-11-22T04:14:06.606Z,-1.10
2022-11-22T04:15:10.009Z,-1.10
2022-11-22T04:16:12.607Z,-1.10
2022-11-22T04:17:35.561Z,-1.10
2022-11-22T04:18:38.081Z,-1.10
2022-11-22T04:20:00.626Z,-1.10
2022-11-22T04:21:21.945Z,-1.10
2022-11-22T04:22:24.606Z,-1.10
2022-11-22T04:23:33.435Z,-1.10
2022-11-22T04:24:54.757Z,-1.10
2022-11-22T04:25:57.273Z,-1.10
2022-11-22T04:26:59.901Z,-1.10
2022-11-22T04:28:02.986Z,-1.10
2022-11-22T04:29:09.976Z,-1.10
2022-11-22T04:30:17.453Z,-1.10
2022-11-22T04:31:41.333Z,-1.10
2022-11-22T04:32:46.943Z,-1.00
2022-11-22T04:33:49.451Z,-1.00
2022-11-22T04:34:51.978Z,-1.10
2022-11-22T04:35:55.276Z,-1.10
2022-11-22T04:36:58.112Z,-1.00
2022-11-22T04:38:00.641Z,-1.00
2022-11-22T04:39:03.490Z,-1.00
2022-11-22T04:40:07.020Z,-1.00
2022-11-22T04:41:09.572Z,-1.00
2022-11-22T04:42:30.500Z,-1.00
2022-11-22T04:43:51.606Z,-1.00
2022-11-22T04:44:54.137Z,-1.00
2022-11-22T04:45:56.652Z,-1.00
2022-11-22T04:46:59.162Z,-1.00
2022-11-22T04:48:01.802Z,-1.00
2022-11-22T04:49:04.523Z,-1.00
2022-11-22T04:50:28.661Z,-0.90
2022-11-22T04:51:49.904Z,-0.90
2022-11-22T04:52:57.595Z,-0.80
2022-11-22T04:54:00.376Z,-0.80
2022-11-22T04:55:02.975Z,-0.80
2022-11-22T04:56:05.754Z,-0.80
2022-11-22T04:57:08.259Z,-0.70
2022-11-22T04:58:11.450Z,-0.70
2022-11-22T04:59:14.101Z,-0.70
2022-11-22T05:00:17.604Z,-0.70
2022-11-22T05:01:20.128Z,-0.60
2022-11-22T05:02:22.727Z,-0.60
2022-11-22T05:03:25.251Z,-0.60
2022-11-22T05:04:27.800Z,-0.60
2022-11-22T05:05:31.109Z,-0.60
2022-11-22T05:06:33.611Z,-0.50
2022-11-22T05:08:02.636Z,-0.50
2022-11-22T05:09:07.126Z,-0.60
2022-11-22T05:10:10.580Z,-0.50
2022-11-22T05:11:13.140Z,-0.50
2022-11-22T05:12:15.665Z,-0.50
2022-11-22T05:13:20.118Z,-0.50
2022-11-22T05:14:22.695Z,-0.60
2022-11-22T05:15:25.303Z,-0.60
2022-11-22T05:16:27.856Z,-0.60
2022-11-22T05:17:30.413Z,-0.60
2022-11-22T05:18:33.473Z,-0.60
2022-11-22T05:19:36.042Z,-0.50
2022-11-22T05:20:38.653Z,-0.50
2022-11-22T05:21:41.354Z,-0.50
2022-11-22T05:23:02.668Z,-0.50
2022-11-22T05:24:05.745Z,-0.50
2022-11-22T05:25:08.952Z,-0.50
2022-11-22T05:26:11.710Z,-0.50
2022-11-22T05:27:14.238Z,-0.50
2022-11-22T05:28:16.756Z,-0.50
2022-11-22T05:29:19.364Z,-0.50
2022-11-22T05:30:22.129Z,-0.50
2022-11-22T05:31:27.362Z,-0.40
2022-11-22T05:32:31.827Z,-0.40
2022-11-22T05:33:38.896Z,-0.40
2022-11-22T05:34:41.400Z,-0.40
2022-11-22T05:35:43.915Z,-0.40
2022-11-22T05:36:46.497Z,-0.40
2022-11-22T05:37:49.031Z,-0.40
2022-11-22T05:38:52.363Z,-0.40
2022-11-22T05:39:55.004Z,-0.30
2022-11-22T05:40:57.577Z,-0.40
2022-11-22T05:42:00.131Z,-0.40
2022-11-22T05:43:02.714Z,-0.30
2022-11-22T05:44:05.522Z,-0.30
2022-11-22T05:45:08.856Z,-0.30
2022-11-22T05:46:31.536Z,-0.30
2022-11-22T05:47:35.890Z,-0.30
2022-11-22T05:48:41.273Z,-0.30
2022-11-22T05:49:46.238Z,-0.30
2022-11-22T05:50:48.837Z,-0.30
2022-11-22T05:51:51.987Z,-0.30
2022-11-22T05:52:55.087Z,-0.30
2022-11-22T05:53:57.632Z,-0.30
2022-11-22T05:55:00.355Z,-0.30
2022-11-22T05:56:17.633Z,-0.30
2022-11-22T05:57:20.315Z,-0.30
2022-11-22T05:58:22.824Z,-0.30
2022-11-22T05:59:25.401Z,-0.30
2022-11-22T06:00:29.838Z,-0.30
2022-11-22T06:01:32.378Z,-0.30
2022-11-22T06:02:35.089Z,-0.30
2022-11-22T06:03:38.618Z,-0.30
2022-11-22T06:04:41.252Z,-0.30
2022-11-22T06:05:50.920Z,-0.30
2022-11-22T06:06:53.456Z,-0.30
2022-11-22T06:08:00.630Z,-0.30
2022-11-22T06:09:03.756Z,-0.30
2022-11-22T06:10:06.741Z,-0.30
2022-11-22T06:11:17.946Z,-0.30
2022-11-22T06:12:20.481Z,-0.30
2022-11-22T06:13:23.095Z,-0.20
2022-11-22T06:14:25.688Z,-0.20
2022-11-22T06:15:28.276Z,-0.30
2022-11-22T06:16:32.070Z,-0.30
2022-11-22T06:17:34.586Z,-0.30
2022-11-22T06:18:37.430Z,-0.20
2022-11-22T06:19:39.992Z,-0.30
2022-11-22T06:20:42.683Z,-0.30
2022-11-22T06:21:45.362Z,-0.30
2022-11-22T06:22:47.921Z,-0.30
2022-11-22T06:23:52.905Z,-0.30
2022-11-22T06:24:55.495Z,-0.20
2022-11-22T06:26:10.170Z,-0.20
2022-11-22T06:27:12.752Z,-0.20
2022-11-22T06:28:15.291Z,-0.20
2022-11-22T06:29:17.832Z,-0.20
2022-11-22T06:30:20.554Z,-0.20
2022-11-22T06:34:42.927Z,-0.20
2022-11-22T06:35:45.522Z,-0.10
2022-11-22T06:36:48.033Z,-0.10
2022-11-22T06:37:50.839Z,-0.10
2022-11-22T06:38:54.971Z,-0.10
2022-11-22T06:39:57.595Z,-0.10
2022-11-22T06:41:02.327Z,-0.10
2022-11-22T06:42:05.379Z,-0.10
2022-11-22T06:43:07.901Z,-0.10
2022-11-22T06:44:10.743Z,-0.10
2022-11-22T06:45:13.326Z,-0.10
2022-11-22T06:46:20.601Z,-0.10
2022-11-22T06:47:23.214Z,-0.10
2022-11-22T06:48:27.086Z,-0.10
2022-11-22T06:49:29.746Z,-0.10
2022-11-22T06:50:32.482Z,-0.10
2022-11-22T06:51:35.232Z,0.00
2022-11-22T06:52:37.930Z,-0.10
2022-11-22T06:53:47.373Z,0.00
2022-11-22T06:54:50.982Z,0.00
2022-11-22T06:56:01.476Z,0.00
2022-11-22T06:57:04.235Z,0.00
2022-11-22T06:58:06.786Z,0.00
2022-11-22T06:59:10.012Z,0.00
2022-11-22T07:00:13.816Z,0.00
2022-11-22T07:01:23.511Z,0.10
2022-11-22T07:02:26.090Z,0.10
2022-11-22T07:03:29.192Z,0.10
2022-11-22T07:04:31.711Z,0.10
2022-11-22T07:05:34.264Z,0.20
2022-11-22T07:06:38.756Z,0.10
2022-11-22T07:07:41.578Z,0.20
2022-11-22T07:08:45.206Z,0.10
2022-11-22T07:09:50.955Z,0.20
2022-11-22T07:11:06.295Z,0.10
2022-11-22T07:12:09.102Z,0.10
2022-11-22T07:13:11.706Z,0.20
2022-11-22T07:14:14.266Z,0.20
2022-11-22T07:15:16.843Z,0.20
2022-11-22T07:16:21.248Z,0.20
2022-11-22T07:17:23.935Z,0.20
2022-11-22T07:18:27.453Z,0.20
2022-11-22T07:19:30.412Z,0.20
2022-11-22T07:20:33.321Z,0.20
2022-11-22T07:21:37.562Z,0.30
2022-11-22T07:22:40.364Z,0.30
2022-11-22T07:23:44.985Z,0.30
2022-11-22T07:24:47.608Z,0.30
2022-11-22T07:25:50.124Z,0.30
2022-11-22T07:26:52.712Z,0.30
2022-11-22T07:27:55.267Z,0.40
2022-11-22T07:28:57.870Z,0.40
2022-11-22T07:30:00.643Z,0.30
2022-11-22T07:31:06.477Z,0.40
2022-11-22T07:32:09.897Z,0.40
2022-11-22T07:33:12.457Z,0.40
2022-11-22T07:34:26.355Z,0.40
2022-11-22T07:35:29.488Z,0.40
2022-11-22T07:36:53.109Z,0.30
2022-11-22T07:38:20.185Z,0.30
2022-11-22T07:41:41.225Z,0.40
2022-11-22T07:43:12.117Z,0.30
2022-11-22T07:44:35.878Z,0.30
2022-11-22T07:48:20.472Z,0.30
2022-11-22T07:50:27.118Z,0.30
2022-11-22T07:54:33.095Z,0.30
2022-11-22T07:56:41.976Z,0.30
2022-11-22T07:58:01.008Z,0.30
2022-11-22T07:59:20.884Z,0.30
2022-11-22T08:01:07.826Z,0.30
2022-11-22T08:02:34.492Z,0.30
2022-11-22T08:03:58.793Z,0.40
2022-11-22T08:05:03.898Z,0.40
2022-11-22T08:06:17.949Z,0.40
2022-11-22T08:07:23.157Z,0.50
2022-11-22T08:08:37.789Z,0.50
2022-11-22T08:09:45.242Z,0.60
2022-11-22T08:11:11.311Z,0.60
2022-11-22T08:12:36.812Z,0.70
2022-11-22T08:13:42.526Z,0.70
2022-11-22T08:14:52.115Z,0.70
2022-11-22T08:16:05.952Z,0.70
2022-11-22T08:17:12.474Z,0.80
2022-11-22T08:18:39.924Z,0.70
2022-11-22T08:19:44.871Z,0.80
2022-11-22T08:20:47.596Z,0.80
2022-11-22T08:21:58.537Z,0.80
2022-11-22T08:23:01.409Z,0.80
2022-11-22T08:24:04.428Z,0.80
2022-11-22T08:25:30.464Z,0.90
2022-11-22T08:26:47.847Z,0.90
2022-11-22T08:27:53.971Z,0.90
2022-11-22T08:29:08.820Z,0.90
2022-11-22T08:30:22.887Z,0.90
2022-11-22T08:31:33.233Z,0.90
2022-11-22T08:32:43.430Z,1.00
2022-11-22T08:33:48.938Z,1.00
2022-11-22T08:34:53.964Z,1.00
2022-11-22T08:36:13.263Z,1.00
2022-11-22T08:37:21.929Z,1.00
2022-11-22T08:38:24.506Z,1.00
2022-11-22T08:39:27.713Z,1.00
2022-11-22T08:40:30.799Z,1.00
2022-11-22T08:41:33.466Z,1.10
2022-11-22T08:42:35.977Z,1.10
2022-11-22T08:43:38.983Z,1.10
2022-11-22T08:44:41.624Z,1.10
2022-11-22T08:45:44.170Z,1.20
2022-11-22T08:46:46.694Z,1.10
2022-11-22T08:47:49.445Z,1.10
2022-11-22T08:48:54.313Z,1.20
2022-11-22T08:49:56.883Z,1.20
2022-11-22T08:51:05.758Z,1.20
2022-11-22T08:52:09.329Z,1.20
2022-11-22T08:53:11.910Z,1.20
2022-11-22T08:54:15.599Z,1.20
2022-11-22T08:55:18.113Z,1.20
2022-11-22T08:56:20.941Z,1.20
2022-11-22T08:57:23.845Z,1.20
2022-11-22T08:58:26.590Z,1.20
2022-11-22T08:59:29.412Z,1.20
2022-11-22T09:01:25.604Z,1.20
2022-11-22T09:02:28.665Z,1.20
2022-11-22T09:03:31.197Z,1.30
2022-11-22T09:04:33.847Z,1.30
2022-11-22T09:05:36.865Z,1.30
2022-11-22T09:08:23.191Z,1.30
2022-11-22T09:09:41.249Z,1.40
2022-11-22T09:10:44.070Z,1.40
2022-11-22T09:11:46.609Z,1.40
2022-11-22T09:12:49.176Z,1.40
2022-11-22T09:13:51.765Z,1.50
2022-11-22T09:14:54.278Z,1.40
2022-11-22T09:16:05.705Z,1.50
2022-11-22T09:17:13.150Z,1.50
2022-11-22T09:18:18.789Z,1.50
2022-11-22T09:19:21.344Z,1.50
2022-11-22T09:20:23.978Z,1.50
2022-11-22T09:21:26.578Z,1.50
2022-11-22T09:22:29.085Z,1.60
2022-11-22T09:23:32.219Z,1.60
2022-11-22T09:24:34.953Z,1.60
2022-11-22T09:25:37.582Z,1.70
2022-11-22T09:26:41.260Z,1.70
2022-11-22T09:27:43.770Z,1.80
2022-11-22T09:28:47.123Z,1.80
2022-11-22T09:29:50.549Z,1.80
2022-11-22T09:31:03.791Z,1.80
2022-11-22T09:32:10.662Z,1.90
2022-11-22T09:33:13.171Z,1.90
2022-11-22T09:34:15.882Z,1.90
2022-11-22T09:35:20.242Z,1.90
2022-11-22T09:36:28.155Z,1.90
2022-11-22T09:37:32.532Z,1.90
2022-11-22T09:38:37.214Z,1.90
2022-11-22T09:39:42.581Z,1.90
2022-11-22T09:40:49.333Z,1.90
2022-11-22T09:42:19.520Z,1.90
2022-11-22T09:43:32.957Z,1.80
2022-11-22T09:45:07.558Z,1.80
2022-11-22T09:46:25.603Z,1.80
2022-11-22T09:47:58.694Z,1.80
2022-11-22T09:49:21.792Z,1.90
2022-11-22T09:50:55.909Z,1.90
2022-11-22T09:52:02.152Z,2.00
2022-11-22T09:53:26.151Z,2.00
2022-11-22T09:54:40.978Z,2.00
2022-11-22T09:55:49.394Z,2.10
2022-11-22T09:56:56.587Z,2.10
2022-11-22T09:58:36.195Z,2.10
2022-11-22T09:59:40.486Z,2.20
2022-11-22T10:00:47.744Z,2.20
2022-11-22T10:02:16.913Z,2.20
2022-11-22T10:03:37.058Z,2.20
2022-11-22T10:04:44.944Z,2.20
2022-11-22T10:05:56.309Z,2.20
2022-11-22T10:07:20.836Z,2.20
2022-11-22T10:08:56.551Z,2.30
2022-11-22T10:10:17.789Z,2.30
2022-11-22T10:11:40.607Z,2.30
2022-11-22T10:12:57.485Z,2.30
2022-11-22T10:14:50.368Z,2.40
2022-11-22T10:19:21.861Z,2.30
2022-11-22T10:20:44.269Z,2.40
2022-11-22T10:22:20.866Z,2.40
2022-11-22T10:23:35.390Z,2.40
2022-11-22T10:24:43.444Z,2.40
2022-11-22T10:26:02.978Z,2.40
2022-11-22T10:27:23.148Z,2.50
2022-11-22T10:28:54.177Z,2.40
2022-11-22T10:30:18.415Z,2.50
2022-11-22T10:31:57.884Z,2.50
2022-11-22T10:33:19.016Z,2.40
2022-11-22T10:35:16.515Z,2.50
2022-11-22T10:36:48.406Z,2.50
2022-11-22T10:38:38.136Z,2.50
2022-11-22T10:40:21.753Z,2.50
2022-11-22T10:41:51.531Z,2.60
2022-11-22T10:43:46.809Z,2.60
2022-11-22T10:46:55.225Z,2.70
2022-11-22T10:48:30.309Z,2.70
2022-11-22T10:49:52.184Z,2.70
2022-11-22T10:51:19.751Z,2.80
2022-11-22T10:53:06.707Z,2.80
2022-11-22T10:55:05.815Z,2.80
2022-11-22T10:56:38.170Z,2.80
2022-11-22T10:58:06.501Z,2.80
2022-11-22T10:59:30.383Z,2.80
2022-11-22T11:00:38.494Z,2.80
2022-11-22T11:02:19.827Z,2.80
2022-11-22T11:03:34.420Z,2.80
2022-11-22T11:04:40.095Z,2.90
2022-11-22T11:07:25.476Z,2.90
2022-11-22T11:10:29.541Z,3.00
2022-11-22T11:11:37.518Z,3.00
2022-11-22T11:12:50.568Z,3.10
2022-11-22T11:13:59.807Z,3.10
2022-11-22T11:15:16.939Z,3.10
2022-11-22T11:16:24.275Z,3.10
2022-11-22T11:17:35.646Z,3.10
2022-11-22T11:18:48.257Z,3.20
2022-11-22T11:20:00.196Z,3.20
2022-11-22T11:21:04.413Z,3.20
2022-11-22T11:22:09.761Z,3.30
2022-11-22T11:23:15.243Z,3.30
2022-11-22T11:24:19.785Z,3.30
2022-11-22T11:25:40.695Z,3.40
2022-11-22T11:26:52.474Z,3.40
2022-11-22T11:28:00.249Z,3.40
2022-11-22T11:29:18.025Z,3.50
2022-11-22T11:30:20.653Z,3.50
2022-11-22T11:31:46.469Z,3.50
2022-11-22T11:32:55.523Z,3.60
2022-11-22T11:34:27.167Z,3.70
2022-11-22T11:35:31.152Z,3.70
2022-11-22T11:36:34.053Z,3.70
2022-11-22T11:37:38.441Z,3.70
2022-11-22T11:38:41.033Z,3.70
2022-11-22T11:39:47.626Z,3.80
2022-11-22T11:40:50.173Z,3.80
2022-11-22T11:41:52.832Z,3.80
2022-11-22T11:43:23.791Z,3.90
2022-11-22T11:44:34.706Z,3.90
2022-11-22T11:45:37.407Z,3.90
2022-11-22T11:46:40.039Z,3.90
2022-11-22T11:47:42.596Z,3.90
2022-11-22T11:48:45.823Z,3.90
2022-11-22T11:49:52.233Z,3.90
2022-11-22T11:51:11.185Z,3.90
2022-11-22T11:52:22.362Z,3.90
2022-11-22T11:53:26.524Z,3.90
2022-11-22T11:54:49.008Z,3.90
2022-11-22T11:55:52.428Z,3.90
2022-11-22T11:57:05.684Z,3.90
2022-11-22T11:58:23.972Z,3.90
2022-11-22T11:59:45.894Z,3.90
2022-11-22T12:00:48.516Z,3.90
2022-11-22T12:02:01.890Z,3.90
2022-11-22T12:03:12.919Z,3.90
2022-11-22T12:04:23.883Z,3.90
2022-11-22T12:05:32.665Z,3.90
2022-11-22T12:06:35.210Z,4.00
2022-11-22T12:07:46.449Z,3.90
2022-11-22T12:08:49.130Z,4.00
2022-11-22T12:09:53.712Z,4.00
2022-11-22T12:11:01.119Z,4.00
2022-11-22T12:12:17.857Z,4.00
2022-11-22T12:13:32.716Z,4.00
2022-11-22T12:15:09.123Z,4.00
2022-11-22T12:16:21.874Z,4.00
2022-11-22T12:17:30.399Z,4.00
2022-11-22T12:19:14.734Z,4.00
2022-11-22T12:20:37.003Z,3.90
2022-11-22T12:21:45.648Z,4.00
2022-11-22T12:23:50.572Z,3.90
2022-11-22T12:25:31.067Z,3.90
2022-11-22T12:26:27.882Z,3.90
2022-11-22T12:27:31.659Z,4.00
2022-11-22T12:28:34.807Z,3.90
2022-11-22T12:29:41.473Z,3.90
2022-11-22T12:30:45.751Z,4.00
2022-11-22T12:32:19.583Z,4.00
2022-11-22T12:33:44.597Z,4.00
2022-11-22T12:35:44.778Z,4.00
2022-11-22T12:37:27.640Z,4.00
2022-11-22T12:40:53.147Z,4.10
2022-11-22T12:42:21.536Z,4.10
2022-11-22T12:43:52.657Z,4.00
2022-11-22T12:45:31.669Z,4.00
2022-11-22T12:46:55.117Z,4.10
2022-11-22T12:55:18.448Z,4.00
2022-11-22T13:07:22.831Z,3.90
2022-11-22T13:09:38.126Z,3.90
2022-11-22T13:11:32.882Z,3.80
2022-11-22T13:12:49.621Z,3.80
2022-11-22T13:15:08.943Z,3.90
2022-11-22T13:16:16.849Z,3.90
2022-11-22T13:18:40.827Z,3.90
2022-11-22T13:19:54.566Z,3.90
2022-11-22T13:21:49.401Z,3.90
2022-11-22T13:23:18.507Z,3.90
2022-11-22T13:25:23.338Z,3.90
2022-11-22T13:27:09.408Z,3.90
2022-11-22T13:29:31.983Z,4.00
2022-11-22T13:34:00.728Z,3.90
2022-11-22T13:38:42.033Z,3.90
2022-11-22T13:39:51.917Z,3.90
2022-11-22T13:41:34.133Z,3.90
2022-11-22T13:43:21.659Z,3.90
2022-11-22T13:44:36.590Z,3.80
2022-11-22T13:48:41.924Z,3.80
2022-11-22T13:49:49.461Z,3.80
2022-11-22T13:50:54.449Z,3.70
2022-11-22T13:51:59.995Z,3.80
2022-11-22T13:53:25.809Z,3.80
2022-11-22T13:54:38.443Z,3.80
2022-11-22T13:55:42.691Z,3.70
2022-11-22T13:56:45.417Z,3.70
2022-11-22T13:57:48.058Z,3.70
2022-11-22T13:59:14.562Z,3.70
2022-11-22T14:00:19.744Z,3.70
2022-11-22T14:01:35.731Z,3.70
2022-11-22T14:03:41.882Z,3.80
2022-11-22T14:05:04.072Z,3.80
2022-11-22T14:06:29.086Z,3.80
2022-11-22T14:08:00.873Z,3.80
2022-11-22T14:09:50.901Z,3.80
2022-11-22T14:12:59.317Z,3.80
2022-11-22T14:14:51.777Z,3.70
2022-11-22T14:16:11.937Z,3.70
2022-11-22T14:17:44.545Z,3.70
2022-11-22T14:19:25.818Z,3.70
2022-11-22T14:20:42.453Z,3.70
2022-11-22T14:22:09.035Z,3.60
2022-11-22T14:23:19.857Z,3.60
2022-11-22T14:25:39.945Z,3.60
2022-11-22T14:27:00.114Z,3.60
2022-11-22T14:28:27.533Z,3.50
2022-11-22T14:30:14.437Z,3.50
2022-11-22T14:31:34.769Z,3.50
2022-11-22T14:33:01.997Z,3.50
2022-11-22T14:34:36.239Z,3.50
2022-11-22T14:36:12.580Z,3.50
2022-11-22T14:37:20.977Z,3.50
2022-11-22T14:38:29.068Z,3.40
2022-11-22T14:39:48.675Z,3.40
2022-11-22T14:41:28.579Z,3.30
2022-11-22T14:42:37.645Z,3.30
2022-11-22T14:43:44.376Z,3.40
2022-11-22T14:45:01.933Z,3.30
2022-11-22T14:46:51.777Z,3.30
2022-11-22T14:47:53.059Z,3.30
2022-11-22T14:49:06.798Z,3.30
2022-11-22T14:50:18.330Z,3.30
2022-11-22T14:51:37.218Z,3.30
2022-11-22T14:52:44.702Z,3.20
2022-11-22T14:53:59.777Z,3.30
2022-11-22T14:55:09.498Z,3.20
2022-11-22T14:56:34.921Z,3.30
2022-11-22T14:57:46.310Z,3.30
2022-11-22T14:59:36.724Z,3.30
2022-11-22T15:01:35.290Z,3.20
2022-11-22T15:03:05.658Z,3.20
2022-11-22T15:09:12.526Z,3.20
2022-11-22T15:09:20.357Z,3.20
2022-11-22T15:09:23.221Z,3.20
2022-11-22T15:10:38.780Z,3.20
2022-11-22T15:12:14.252Z,3.30
2022-11-22T15:13:50.646Z,3.20
2022-11-22T15:58:14.701Z,3.30
2022-11-22T15:59:27.709Z,3.30
2022-11-22T16:00:30.523Z,3.30
2022-11-22T16:01:39.908Z,3.30
2022-11-22T16:02:53.229Z,3.30
2022-11-22T16:04:40.552Z,3.30
2022-11-22T16:06:06.252Z,3.30
2022-11-22T16:07:29.469Z,3.30
2022-11-22T16:08:32.902Z,3.30
2022-11-22T16:09:38.114Z,3.30
2022-11-22T16:10:45.592Z,3.30
2022-11-22T16:11:55.236Z,3.30
2022-11-22T16:13:13.962Z,3.30
2022-11-22T16:14:41.007Z,3.30
2022-11-22T16:15:43.589Z,3.30
2022-11-22T16:16:46.235Z,3.20
2022-11-22T16:18:05.866Z,3.30
2022-11-22T16:19:34.304Z,3.20
2022-11-22T16:20:39.450Z,3.20
2022-11-22T16:21:59.527Z,3.20
2022-11-22T16:23:11.930Z,3.20
2022-11-22T16:24:19.323Z,3.20
2022-11-22T16:25:33.645Z,3.20
2022-11-22T16:26:36.215Z,3.20
2022-11-22T16:27:46.607Z,3.20
2022-11-22T16:28:51.541Z,3.20
2022-11-22T16:29:54.168Z,3.20
2022-11-22T16:31:03.296Z,3.20
2022-11-22T16:32:12.348Z,3.20
2022-11-22T16:33:15.036Z,3.20
2022-11-22T16:34:17.842Z,3.20
2022-11-22T16:35:33.766Z,3.20
2022-11-22T16:36:36.634Z,3.20
2022-11-22T16:37:47.952Z,3.20
2022-11-22T16:38:51.434Z,3.20
2022-11-22T16:39:54.228Z,3.20
2022-11-22T16:40:58.903Z,3.20
2022-11-22T16:42:01.427Z,3.20
2022-11-22T16:43:09.573Z,3.20
2022-11-22T16:45:33.663Z,3.20
2022-11-22T16:46:36.274Z,3.10
2022-11-22T16:47:38.849Z,3.10
2022-11-22T16:48:42.948Z,3.10
2022-11-22T16:49:47.101Z,3.10
2022-11-22T16:50:58.030Z,3.10
2022-11-22T16:52:01.712Z,3.10
2022-11-22T16:53:10.494Z,3.10
2022-11-22T16:54:17.766Z,3.10
2022-11-22T16:55:21.141Z,3.20
2022-11-22T16:56:27.570Z,3.10
2022-11-22T16:57:30.119Z,3.10
2022-11-22T16:58:32.978Z,3.20
2022-11-22T16:59:35.523Z,3.10
2022-11-22T17:00:38.221Z,3.10
2022-11-22T17:01:43.239Z,3.10
2022-11-22T17:02:45.741Z,3.20
2022-11-22T17:03:52.553Z,3.10
2022-11-22T17:04:55.093Z,3.20
2022-11-22T17:05:57.606Z,3.20
2022-11-22T17:07:00.153Z,3.20
2022-11-22T17:08:02.818Z,3.20
2022-11-22T17:09:05.691Z,3.20
2022-11-22T17:10:08.862Z,3.20
2022-11-22T17:11:14.249Z,3.20
2022-11-22T17:12:33.246Z,3.20